DLH67B EHAM-EDDF
Flight info
| Callsign | DLH67B |
|---|---|
| Flight time | N/A |
| Altitude | 33000 |
| Route | EDUPO Z739 MISGO DCT DIXAT DIXAT2C |
| Aircraft | A320/M-SDE3FGHIRWY/LB1 |
Departure
| Time | 2026-04-28 15:28 |
|---|---|
| Airport | Amsterdam Airport Schiphol (EHAM) |
Arrival
| Time | N/A |
|---|---|
| Airport | Frankfurt Main Airport (EDDF) |
| Time | Latitude | Longitude | Altitude | Speed | Heading |
|---|---|---|---|---|---|
| 2026-04-28 14:54 | 52.30366 | 4.76425 | 62 ft | 0 kts | 209° |
| 2026-04-28 14:54 | 52.30375 | 4.76397 | 0 ft | 0 kts | 209° |
| 2026-04-28 14:54 | 52.30375 | 4.76399 | 137 ft | 0 kts | 189° |
| 2026-04-28 14:55 | 52.30335 | 4.76435 | 0 ft | 0 kts | 239° |
| 2026-04-28 14:55 | 52.30458 | 4.76317 | 0 ft | 0 kts | 239° |
| 2026-04-28 14:55 | 52.30441 | 4.76333 | 126 ft | 0 kts | 239° |
| 2026-04-28 15:14 | 52.30441 | 4.76334 | -1 ft | 1 kts | 239° |
| 2026-04-28 15:14 | 52.30455 | 4.76366 | -1 ft | 4 kts | 219° |
| 2026-04-28 15:14 | 52.30478 | 4.76384 | -1 ft | 4 kts | 177° |
| 2026-04-28 15:14 | 52.30494 | 4.76378 | -1 ft | 0 kts | 148° |
| 2026-04-28 15:17 | 52.30460 | 4.76411 | -1 ft | 11 kts | 148° |
| 2026-04-28 15:17 | 52.30399 | 4.76475 | -1 ft | 10 kts | 147° |
| 2026-04-28 15:17 | 52.30345 | 4.76526 | -1 ft | 8 kts | 158° |
| 2026-04-28 15:18 | 52.30276 | 4.76467 | -1 ft | 20 kts | 235° |
| 2026-04-28 15:18 | 52.30201 | 4.76276 | -1 ft | 19 kts | 235° |
| 2026-04-28 15:18 | 52.30133 | 4.76099 | -1 ft | 18 kts | 238° |
| 2026-04-28 15:18 | 52.30070 | 4.75936 | -1 ft | 16 kts | 237° |
| 2026-04-28 15:19 | 52.30013 | 4.75788 | -1 ft | 15 kts | 237° |
| 2026-04-28 15:19 | 52.29971 | 4.75645 | -1 ft | 13 kts | 249° |
| 2026-04-28 15:19 | 52.29919 | 4.75535 | -1 ft | 12 kts | 232° |
| 2026-04-28 15:19 | 52.29877 | 4.75433 | -1 ft | 10 kts | 238° |
| 2026-04-28 15:20 | 52.29842 | 4.75339 | -1 ft | 9 kts | 245° |
| 2026-04-28 15:20 | 52.29835 | 4.75243 | -1 ft | 8 kts | 280° |
| 2026-04-28 15:20 | 52.29863 | 4.75157 | -1 ft | 8 kts | 311° |
| 2026-04-28 15:20 | 52.29899 | 4.75088 | -1 ft | 8 kts | 310° |
| 2026-04-28 15:21 | 52.29949 | 4.74994 | -1 ft | 19 kts | 311° |
| 2026-04-28 15:21 | 52.30043 | 4.74823 | -1 ft | 21 kts | 311° |
| 2026-04-28 15:21 | 52.30132 | 4.74659 | 9 ft | 16 kts | 311° |
| 2026-04-28 15:21 | 52.30200 | 4.74531 | 10 ft | 14 kts | 311° |
| 2026-04-28 15:22 | 52.30226 | 4.74483 | 10 ft | 3 kts | 311° |
| 2026-04-28 15:22 | 52.30240 | 4.74455 | 10 ft | 5 kts | 311° |
| 2026-04-28 15:22 | 52.30283 | 4.74374 | 9 ft | 12 kts | 311° |
| 2026-04-28 15:22 | 52.30357 | 4.74239 | -1 ft | 18 kts | 314° |
| 2026-04-28 15:23 | 52.30474 | 4.74197 | -1 ft | 18 kts | 4° |
| 2026-04-28 15:23 | 52.30600 | 4.74211 | -1 ft | 18 kts | 3° |
| 2026-04-28 15:23 | 52.30730 | 4.74221 | -1 ft | 19 kts | 3° |
| 2026-04-28 15:23 | 52.30863 | 4.74234 | -1 ft | 19 kts | 3° |
| 2026-04-28 15:24 | 52.30997 | 4.74248 | -1 ft | 19 kts | 3° |
| 2026-04-28 15:24 | 52.31133 | 4.74260 | -1 ft | 20 kts | 3° |
| 2026-04-28 15:24 | 52.31271 | 4.74273 | -1 ft | 20 kts | 3° |
| 2026-04-28 15:24 | 52.31412 | 4.74285 | -1 ft | 20 kts | 5° |
| 2026-04-28 15:25 | 52.31473 | 4.74386 | -1 ft | 9 kts | 70° |
| 2026-04-28 15:25 | 52.31474 | 4.74491 | -1 ft | 10 kts | 93° |
| 2026-04-28 15:25 | 52.31489 | 4.74604 | -1 ft | 11 kts | 64° |
| 2026-04-28 15:25 | 52.31550 | 4.74660 | -1 ft | 11 kts | 2° |
| 2026-04-28 15:26 | 52.31631 | 4.74675 | -1 ft | 12 kts | 25° |
| 2026-04-28 15:26 | 52.31668 | 4.74780 | -1 ft | 0 kts | 85° |
| 2026-04-28 15:27 | 52.31669 | 4.74814 | -1 ft | 11 kts | 85° |
| 2026-04-28 15:27 | 52.31689 | 4.75373 | -3 ft | 83 kts | 87° |
| 2026-04-28 15:28 | 52.31731 | 4.76599 | -2 ft | 134 kts | 86° |
| 2026-04-28 15:28 | 52.31799 | 4.78282 | 327 ft | 154 kts | 82° |
| 2026-04-28 15:28 | 52.31865 | 4.80059 | 843 ft | 166 kts | 84° |
| 2026-04-28 15:28 | 52.31934 | 4.82068 | 1248 ft | 188 kts | 85° |
| 2026-04-28 15:29 | 52.32012 | 4.84334 | 1658 ft | 212 kts | 84° |
| 2026-04-28 15:29 | 52.31979 | 4.86866 | 2314 ft | 232 kts | 100° |
| 2026-04-28 15:29 | 52.31391 | 4.89376 | 3272 ft | 239 kts | 109° |
| 2026-04-28 15:29 | 52.30724 | 4.91890 | 4274 ft | 242 kts | 110° |
| 2026-04-28 15:30 | 52.30047 | 4.94437 | 5241 ft | 247 kts | 112° |
| 2026-04-28 15:30 | 52.29396 | 4.97069 | 5963 ft | 252 kts | 108° |
| 2026-04-28 15:30 | 52.28865 | 4.99795 | 6192 ft | 252 kts | 105° |
| 2026-04-28 15:30 | 52.28388 | 5.02545 | 6319 ft | 253 kts | 104° |
| 2026-04-28 15:31 | 52.27917 | 5.05358 | 7000 ft | 258 kts | 104° |
| 2026-04-28 15:31 | 52.27444 | 5.08184 | 7944 ft | 259 kts | 104° |
| 2026-04-28 15:31 | 52.26961 | 5.11047 | 8835 ft | 263 kts | 104° |
| 2026-04-28 15:31 | 52.26465 | 5.13946 | 9706 ft | 268 kts | 104° |
| 2026-04-28 15:32 | 52.25954 | 5.16897 | 10523 ft | 274 kts | 104° |
| 2026-04-28 15:32 | 52.25600 | 5.18935 | 10758 ft | 290 kts | 104° |
| 2026-04-28 15:32 | 52.24653 | 5.23305 | 11094 ft | 323 kts | 118° |
| 2026-04-28 15:32 | 52.23308 | 5.26410 | 11370 ft | 345 kts | 124° |
| 2026-04-28 15:33 | 52.21844 | 5.29572 | 11988 ft | 353 kts | 126° |
| 2026-04-28 15:33 | 52.20333 | 5.32777 | 12740 ft | 358 kts | 126° |
| 2026-04-28 15:33 | 52.18802 | 5.36006 | 13479 ft | 363 kts | 126° |
| 2026-04-28 15:33 | 52.17303 | 5.39170 | 14166 ft | 367 kts | 126° |
| 2026-04-28 15:34 | 52.15755 | 5.42446 | 14786 ft | 371 kts | 126° |
| 2026-04-28 15:34 | 52.14172 | 5.45804 | 15416 ft | 376 kts | 126° |
| 2026-04-28 15:34 | 52.12578 | 5.49192 | 16039 ft | 380 kts | 126° |
| 2026-04-28 15:34 | 52.10963 | 5.52627 | 16667 ft | 384 kts | 125° |
| 2026-04-28 15:35 | 52.09332 | 5.56090 | 17282 ft | 387 kts | 126° |
| 2026-04-28 15:35 | 52.06016 | 5.63106 | 18481 ft | 395 kts | 126° |
| 2026-04-28 15:35 | 52.04331 | 5.66664 | 18997 ft | 399 kts | 126° |
| 2026-04-28 15:36 | 52.02632 | 5.70242 | 19516 ft | 402 kts | 126° |
| 2026-04-28 15:36 | 52.00915 | 5.73848 | 20028 ft | 405 kts | 126° |
| 2026-04-28 15:36 | 51.99185 | 5.77479 | 20536 ft | 408 kts | 126° |
| 2026-04-28 15:36 | 51.97443 | 5.81135 | 21042 ft | 411 kts | 126° |
| 2026-04-28 15:37 | 51.95683 | 5.84823 | 21542 ft | 414 kts | 126° |
| 2026-04-28 15:37 | 51.93915 | 5.88529 | 22025 ft | 418 kts | 126° |
| 2026-04-28 15:37 | 51.92129 | 5.92265 | 22502 ft | 421 kts | 126° |
| 2026-04-28 15:37 | 51.90936 | 5.94752 | 22816 ft | 423 kts | 126° |
| 2026-04-28 15:38 | 51.88501 | 5.99817 | 23432 ft | 428 kts | 127° |
| 2026-04-28 15:38 | 51.86668 | 6.03620 | 23871 ft | 431 kts | 127° |
| 2026-04-28 15:38 | 51.84803 | 6.07439 | 24240 ft | 434 kts | 128° |
| 2026-04-28 15:38 | 51.82853 | 6.11196 | 24618 ft | 437 kts | 129° |
| 2026-04-28 15:39 | 51.80837 | 6.14896 | 24991 ft | 440 kts | 130° |
| 2026-04-28 15:39 | 51.78777 | 6.18585 | 25376 ft | 443 kts | 131° |
| 2026-04-28 15:39 | 51.76701 | 6.22286 | 25741 ft | 446 kts | 131° |
| 2026-04-28 15:39 | 51.74616 | 6.26021 | 26090 ft | 449 kts | 131° |
| 2026-04-28 15:40 | 51.72529 | 6.29785 | 26443 ft | 452 kts | 130° |
| 2026-04-28 15:40 | 51.70435 | 6.33578 | 26778 ft | 454 kts | 130° |
| 2026-04-28 15:40 | 51.68333 | 6.37395 | 27101 ft | 457 kts | 130° |
| 2026-04-28 15:40 | 51.66220 | 6.41236 | 27441 ft | 459 kts | 130° |
| 2026-04-28 15:41 | 51.64096 | 6.45106 | 27776 ft | 462 kts | 130° |
| 2026-04-28 15:41 | 51.61991 | 6.48936 | 28113 ft | 463 kts | 130° |
| 2026-04-28 15:41 | 51.59857 | 6.52812 | 28596 ft | 462 kts | 130° |
| 2026-04-28 15:41 | 51.57721 | 6.56676 | 29085 ft | 461 kts | 131° |